CheckWX is a tool to help pilots better visualize weather data.  It is not intended as a substitute for an official pre-flight weather briefing.

14:41:43 UTC

KSBA METAR
Santa Barbara Municipal Airport
Santa Barbara, California, USA
Current

49 mins ago

KSBA 201353Z AUTO 27013G22KT 10SM CLR 13/08 A2988 RMK AO2 SLP117 T01280083
Observed
May-20 @ 13:53 UTC
Wind
  • 270° at 13 KTS
  • Gusting to 22 KTS
Visibility
10 SM
Flight Rules
VFR
Cloud Levels
  • Clear skies
Temperature
13°C / 55°F
Dewpoint
C / 46°F
Humidity
72%
Altimeter
29.88" Hg
Pressure
1011.82 hPa
Previous

2 hours ago

KSBA 201253Z AUTO 28006KT 10SM CLR 12/08 A2986 RMK AO2 SLP111 T01170083
Observed
May-20 @ 12:53 UTC
Wind
  • 280° at 6 KTS
Visibility
10 SM
Flight Rules
VFR
Cloud Levels
  • Clear skies
Temperature
12°C / 54°F
Dewpoint
C / 46°F
Humidity
77%
Altimeter
29.86" Hg
Pressure
1011.22 hPa
Previous

3 hours ago

KSBA 201153Z AUTO 33006KT 10SM FEW029 SCT065 12/08 A2986 RMK AO2 SLP111 70034 T01220083 10139 20111 56003
Observed
May-20 @ 11:53 UTC
Wind
  • 330° at 6 KTS
Visibility
10 SM
Flight Rules
VFR
Cloud Levels
  • Few at 2,900' AGL
  • Scattered at 6,500' AGL
Temperature
12°C / 54°F
Dewpoint
C / 46°F
Humidity
77%
Altimeter
29.86" Hg
Pressure
1011.22 hPa
24 Hour Rain
0.34"